Time;durP1;ratioP1;P1;durP2;ratioP2;P2;SDS_P1;SDS_P2;PMS_P1;PMS_P2;Temp;Humidity;BMP_temperature;BMP_pressure;BME280_temperature;BME280_humidity;BME280_pressure;Samples;Min_cycle;Max_cycle;Signal;HPM_P1;HPM_P2
2021/03/21 00:00:25;;;;;;;19.95;8.65;;;;;;;-0.43;50.96;100352.80;147769;1147;104525;-71
2021/03/21 00:03:28;;;;;;;19.33;8.00;;;;;;;-0.47;51.35;100346.87;147723;1147;104450;-70
2021/03/21 00:06:32;;;;;;;20.05;8.98;;;;;;;-0.50;51.52;100341.80;147728;1146;104549;-72
2021/03/21 00:09:35;;;;;;;15.70;7.30;;;;;;;-0.52;51.37;100341.04;147732;1147;104605;-71
2021/03/21 00:12:38;;;;;;;31.90;15.18;;;;;;;-0.52;52.45;100335.80;147620;1147;104467;-72
2021/03/21 00:15:41;;;;;;;25.37;11.63;;;;;;;-0.52;51.22;100325.31;147194;1147;104550;-72
2021/03/21 00:18:45;;;;;;;44.27;16.73;;;;;;;-0.53;51.19;100323.61;147338;1147;104471;-72
2021/03/21 00:21:48;;;;;;;52.05;21.87;;;;;;;-0.56;52.31;100315.89;147296;1147;104545;-73
2021/03/21 00:24:51;;;;;;;33.25;14.07;;;;;;;-0.58;52.19;100303.80;147287;1146;104729;-73
2021/03/21 00:27:55;;;;;;;49.70;18.98;;;;;;;-0.62;51.54;100297.87;147492;1147;104467;-70
2021/03/21 00:30:59;;;;;;;51.08;19.90;;;;;;;-0.66;51.33;100291.95;147745;1147;104553;-71
2021/03/21 00:34:02;;;;;;;38.40;15.25;;;;;;;-0.66;52.40;100293.73;147777;1147;104630;-73
2021/03/21 00:37:07;;;;;;;39.05;16.73;;;;;;;-0.70;52.25;100282.55;147667;1147;104553;-70
2021/03/21 00:40:15;;;;;;;22.75;9.88;;;;;;;-0.70;51.72;100281.72;147601;1148;104942;-70
2021/03/21 00:43:19;;;;;;;83.92;33.90;;;;;;;-0.67;51.71;100285.03;147797;1147;104544;-70
2021/03/21 00:46:23;;;;;;;39.65;17.85;;;;;;;-0.70;52.30;100266.84;147632;1148;104462;-70
2021/03/21 00:49:26;;;;;;;35.60;14.60;;;;;;;-0.70;51.83;100263.38;147615;1148;104526;-72
2021/03/21 00:52:29;;;;;;;49.65;18.42;;;;;;;-0.68;52.51;100253.66;147578;1147;104452;-74
2021/03/21 00:55:33;;;;;;;32.83;13.60;;;;;;;-0.65;51.94;100253.51;147576;1147;104567;-72
2021/03/21 00:58:37;;;;;;;34.45;12.18;;;;;;;-0.66;52.76;100242.16;147682;1148;104806;-70
2021/03/21 01:01:40;;;;;;;78.97;27.62;;;;;;;-0.69;53.08;100237.09;147581;1147;104474;-70
2021/03/21 01:04:43;;;;;;;46.25;19.15;;;;;;;-0.67;51.75;100229.16;147391;1146;104489;-70
2021/03/21 01:07:49;;;;;;;37.80;14.93;;;;;;;-0.68;52.83;100212.57;147647;1147;104497;-72
2021/03/21 01:10:55;;;;;;;57.83;22.00;;;;;;;-0.69;53.23;100204.81;147667;1147;104551;-72
2021/03/21 01:13:59;;;;;;;49.38;18.23;;;;;;;-0.72;53.39;100194.48;147623;1147;104554;-72
2021/03/21 01:17:03;;;;;;;99.45;34.10;;;;;;;-0.73;53.39;100183.17;147641;1148;104489;-72
2021/03/21 01:20:09;;;;;;;43.58;16.25;;;;;;;-0.75;53.02;100186.78;147643;1147;104526;-75
2021/03/21 01:23:12;;;;;;;46.10;17.87;;;;;;;-0.74;53.14;100178.01;147658;1147;104555;-71
2021/03/21 01:26:17;;;;;;;22.07;8.95;;;;;;;-0.76;53.54;100172.84;147707;1147;104585;-71
2021/03/21 01:29:21;;;;;;;31.67;12.80;;;;;;;-0.77;52.91;100170.30;147707;1147;104534;-71
2021/03/21 01:32:24;;;;;;;29.15;11.93;;;;;;;-0.77;53.77;100165.06;147658;1146;104457;-72
2021/03/21 01:35:27;;;;;;;21.48;9.95;;;;;;;-0.81;53.44;100154.77;147609;1147;104744;-73
2021/03/21 01:38:30;;;;;;;16.67;8.28;;;;;;;-0.83;54.10;100140.91;147603;1147;104547;-70
2021/03/21 01:41:36;;;;;;;15.15;6.95;;;;;;;-0.81;54.36;100138.18;147398;1147;104538;-69
2021/03/21 01:44:39;;;;;;;18.25;9.45;;;;;;;-0.82;53.80;100126.86;147530;1146;104454;-72
2021/03/21 01:47:42;;;;;;;13.75;6.72;;;;;;;-0.85;53.90;100115.70;147706;1148;104532;-70
2021/03/21 01:50:51;;;;;;;16.65;7.10;;;;;;;-0.88;54.72;100108.88;147600;1147;104546;-71
2021/03/21 01:53:58;;;;;;;17.50;8.98;;;;;;;-0.86;53.62;100099.16;147638;1148;104460;-70
2021/03/21 01:57:02;;;;;;;16.62;7.62;;;;;;;-0.83;54.18;100112.09;147563;1147;104620;-70
2021/03/21 02:00:09;;;;;;;13.22;6.67;;;;;;;-0.83;54.00;100098.99;147725;1146;104546;-71
2021/03/21 02:03:14;;;;;;;13.88;6.78;;;;;;;-0.76;53.26;100093.41;147672;1147;104451;-70
2021/03/21 02:06:42;;;;;;;12.88;7.28;;;;;;;-0.73;54.90;100085.36;147670;1147;104511;-74
2021/03/21 02:09:55;;;;;;;10.85;5.78;;;;;;;-0.68;54.64;100073.70;147678;1147;104475;-69
2021/03/21 02:13:04;;;;;;;14.47;6.55;;;;;;;-0.65;54.02;100067.46;147656;1146;104620;-70
2021/03/21 02:16:11;;;;;;;15.48;7.15;;;;;;;-0.63;54.11;100055.95;147602;1146;104588;-68
2021/03/21 02:19:39;;;;;;;12.65;6.60;;;;;;;-0.56;53.93;100042.50;147640;1147;104569;-70
2021/03/21 02:22:50;;;;;;;12.65;5.62;;;;;;;-0.52;54.76;100039.63;147629;1148;104490;-68
2021/03/21 02:26:18;;;;;;;12.58;6.58;;;;;;;-0.49;54.49;100028.95;147672;1147;104891;-71
2021/03/21 02:29:30;;;;;;;18.05;9.45;;;;;;;-0.41;54.36;100025.89;147564;1147;104618;-69
2021/03/21 02:32:39;;;;;;;12.18;6.40;;;;;;;-0.37;53.58;100014.28;147729;1147;104492;-73
2021/03/21 02:35:50;;;;;;;14.60;7.35;;;;;;;-0.30;55.04;100006.92;147659;1148;104486;-70
2021/03/21 02:38:58;;;;;;;13.80;6.30;;;;;;;-0.31;53.65;100003.47;147648;1148;104544;-68
2021/03/21 02:42:07;;;;;;;13.88;6.20;;;;;;;-0.28;54.10;99994.57;147602;1147;104471;-68
2021/03/21 02:45:19;;;;;;;11.68;6.20;;;;;;;-0.27;54.41;99980.51;147649;1147;104601;-70
2021/03/21 02:48:28;;;;;;;12.23;6.55;;;;;;;-0.25;54.45;99983.88;147596;1147;104969;-67
2021/03/21 02:51:37;;;;;;;15.35;7.00;;;;;;;-0.24;54.17;99982.96;147414;1147;104525;-71
2021/03/21 02:54:46;;;;;;;15.83;7.77;;;;;;;-0.21;54.10;99980.17;147326;1147;104525;-67
2021/03/21 02:57:55;;;;;;;13.90;7.72;;;;;;;-0.24;54.48;99967.23;147611;1147;104844;-68
2021/03/21 03:01:03;;;;;;;15.83;8.50;;;;;;;-0.22;54.26;99971.44;147254;1148;104531;-65
2021/03/21 03:04:11;;;;;;;15.67;7.83;;;;;;;-0.21;54.49;99959.20;147547;1147;104473;-67
2021/03/21 03:07:21;;;;;;;26.10;11.78;;;;;;;-0.17;54.82;99950.20;147465;1148;104550;-71
2021/03/21 03:10:30;;;;;;;16.40;8.23;;;;;;;-0.17;54.62;99947.58;147402;1147;104546;-71
2021/03/21 03:13:39;;;;;;;409.23;149.43;;;;;;;-0.14;54.23;99938.67;147205;1147;104460;-70
2021/03/21 03:16:51;;;;;;;116.80;52.17;;;;;;;-0.10;54.31;99930.52;147572;1146;104703;-72
2021/03/21 03:20:00;;;;;;;32.42;17.32;;;;;;;-0.07;54.70;99930.34;147714;1147;104504;-70
2021/03/21 03:23:14;;;;;;;161.03;57.77;;;;;;;-0.06;54.57;99920.69;147605;1147;104569;-70
2021/03/21 03:26:24;;;;;;;49.65;22.62;;;;;;;-0.04;54.23;99918.81;147754;1147;104526;-72
2021/03/21 03:29:34;;;;;;;88.95;38.60;;;;;;;-0.08;54.72;99914.70;147649;1147;104588;-71
2021/03/21 03:32:38;;;;;;;18.50;10.87;;;;;;;-0.07;54.49;99904.12;147452;1147;104620;-72
2021/03/21 03:35:42;;;;;;;14.50;7.93;;;;;;;-0.06;54.61;99900.58;147136;1147;104476;-64
2021/03/21 03:38:47;;;;;;;15.10;7.42;;;;;;;-0.07;54.28;99896.25;147450;1147;104458;-67
2021/03/21 03:42:01;;;;;;;13.30;6.80;;;;;;;-0.11;54.55;99886.89;147195;1147;104470;-71
2021/03/21 03:45:13;;;;;;;13.30;7.50;;;;;;;-0.12;54.54;99866.00;147259;1147;104455;-71
2021/03/21 03:48:29;;;;;;;15.32;7.53;;;;;;;-0.10;54.14;99866.74;147621;1146;104601;-73
2021/03/21 03:51:43;;;;;;;11.50;6.40;;;;;;;-0.11;54.21;99857.20;147685;1147;104513;-70
2021/03/21 03:54:53;;;;;;;19.57;8.45;;;;;;;-0.10;54.52;99853.63;147625;1147;104579;-68
2021/03/21 03:58:02;;;;;;;18.90;9.03;;;;;;;-0.09;54.37;99850.92;147611;1147;104468;-68
2021/03/21 04:01:11;;;;;;;51.58;22.07;;;;;;;-0.08;54.39;99849.13;147641;1147;104594;-70
2021/03/21 04:04:23;;;;;;;55.25;28.67;;;;;;;-0.06;54.29;99840.25;147596;1146;104623;-67
2021/03/21 04:07:36;;;;;;;46.47;19.53;;;;;;;-0.03;54.44;99839.20;147652;1147;104550;-68
2021/03/21 04:10:46;;;;;;;31.90;14.58;;;;;;;-0.03;54.56;99834.80;147605;1148;104515;-70
2021/03/21 04:13:57;;;;;;;26.02;11.08;;;;;;;-0.01;54.07;99832.91;147614;1147;104547;-70
2021/03/21 04:17:08;;;;;;;32.40;13.03;;;;;;;0.07;54.44;99818.48;147687;1148;104534;-70
2021/03/21 04:20:19;;;;;;;25.50;10.72;;;;;;;0.08;54.02;99825.40;147624;1147;104547;-72
2021/03/21 04:23:31;;;;;;;58.45;21.73;;;;;;;0.08;53.78;99825.40;147699;1147;104455;-69
2021/03/21 04:26:41;;;;;;;44.93;17.70;;;;;;;0.08;54.28;99817.53;147665;1148;104568;-67
2021/03/21 04:29:54;;;;;;;27.27;11.28;;;;;;;0.06;53.56;99807.16;147640;1148;104460;-67
2021/03/21 04:33:00;;;;;;;76.62;29.98;;;;;;;0.10;53.83;99802.56;147460;1146;104470;-71
2021/03/21 04:36:07;;;;;;;206.10;73.57;;;;;;;0.09;54.31;99803.48;147678;1146;104739;-67
2021/03/21 04:39:14;;;;;;;62.70;26.80;;;;;;;0.11;53.63;99801.61;147635;1147;104485;-68
2021/03/21 04:42:23;;;;;;;121.67;63.92;;;;;;;0.15;54.17;99795.22;147628;1147;104482;-70
2021/03/21 04:45:32;;;;;;;70.10;34.83;;;;;;;0.14;53.53;99798.80;147682;1147;104548;-69
2021/03/21 04:48:36;;;;;;;241.17;123.20;;;;;;;0.14;53.58;99788.30;147688;1147;104538;-69
2021/03/21 04:51:44;;;;;;;39.03;21.68;;;;;;;0.16;53.60;99794.30;147486;1146;104626;-69
2021/03/21 04:54:50;;;;;;;35.50;21.20;;;;;;;0.20;53.58;99787.91;147586;1148;104555;-71
2021/03/21 04:57:57;;;;;;;24.52;14.23;;;;;;;0.21;53.64;99781.70;147661;1147;104475;-70
2021/03/21 05:01:05;;;;;;;16.65;8.13;;;;;;;0.22;53.60;99787.81;147715;1146;104461;-74
2021/03/21 05:04:15;;;;;;;18.60;11.20;;;;;;;0.20;53.67;99772.17;147899;1147;104480;-72
2021/03/21 05:07:31;;;;;;;18.53;10.17;;;;;;;0.18;53.40;99755.69;147539;1148;104534;-71
2021/03/21 05:10:39;;;;;;;53.63;19.40;;;;;;;0.18;54.16;99753.89;147590;1147;104553;-73
2021/03/21 05:13:47;;;;;;;89.37;32.25;;;;;;;0.21;53.88;99750.22;147621;1147;104483;-71
2021/03/21 05:17:01;;;;;;;127.47;38.10;;;;;;;0.25;53.71;99741.23;147419;1148;104486;-72
2021/03/21 05:20:17;;;;;;;38.17;15.38;;;;;;;0.29;53.53;99745.34;147447;1147;104529;-69
2021/03/21 05:23:32;;;;;;;32.42;16.00;;;;;;;0.31;54.15;99743.45;147565;1147;104537;-68
2021/03/21 05:26:41;;;;;;;20.47;12.33;;;;;;;0.36;53.55;99732.64;147102;1148;104535;-70
2021/03/21 05:29:54;;;;;;;15.68;8.00;;;;;;;0.36;53.63;99733.47;147609;1147;104935;-70
2021/03/21 05:32:59;;;;;;;153.12;54.23;;;;;;;0.36;53.56;99725.59;147179;1148;104473;-66
2021/03/21 05:36:11;;;;;;;56.88;19.12;;;;;;;0.35;53.93;99730.97;147308;1147;104462;-70
2021/03/21 05:39:23;;;;;;;31.75;13.60;;;;;;;0.34;53.77;99719.61;147702;1147;104556;-70
2021/03/21 05:43:25;;;;;;;36.30;16.87;;;;;;;0.35;53.75;99709.98;147726;1147;104682;-71
2021/03/21 05:46:48;;;;;;;15.23;7.40;;;;;;;0.34;53.73;99709.11;147703;1147;104547;-71
2021/03/21 05:50:31;;;;;;;20.05;8.88;;;;;;;0.35;53.82;99708.19;147615;1148;105794;-70
2021/03/21 05:54:21;;;;;;;11.63;6.47;;;;;;;0.37;53.77;99714.17;147698;1147;104486;-70
2021/03/21 05:57:58;;;;;;;11.65;6.08;;;;;;;0.43;54.27;99709.47;147595;1148;104623;-70
2021/03/21 06:01:33;;;;;;;339.90;79.67;;;;;;;0.46;53.75;99704.83;147610;1148;104575;-74
2021/03/21 06:05:30;;;;;;;41.05;16.75;;;;;;;0.48;53.80;99716.10;147669;1148;104461;-72
2021/03/21 06:08:42;;;;;;;16.48;8.03;;;;;;;0.47;54.04;99703.07;147573;1147;104597;-71
2021/03/21 06:11:48;;;;;;;;;;;;;;;0.54;54.08;99704.32;147504;1147;104548;-67
2021/03/21 06:15:37;;;;;;;38.50;14.37;;;;;;;0.56;54.22;99697.22;147350;1147;104601;-73
2021/03/21 06:18:56;;;;;;;151.68;36.17;;;;;;;0.56;54.27;99684.92;147564;1147;104658;-71
2021/03/21 06:22:21;;;;;;;48.63;16.45;;;;;;;0.66;54.56;99684.30;147768;1147;104498;-77
2021/03/21 06:25:56;;;;;;;25.30;10.18;;;;;;;0.66;54.53;99676.42;147618;1147;104566;-74
2021/03/21 06:29:44;;;;;;;47.83;18.32;;;;;;;0.70;55.17;99670.85;147416;1147;104457;-72
2021/03/21 06:33:03;;;;;;;149.68;31.12;;;;;;;0.69;55.13;99666.53;146880;1148;104636;-73
2021/03/21 06:36:20;;;;;;;102.38;37.33;;;;;;;0.77;55.15;99664.24;147712;1147;104481;-69
2021/03/21 06:39:57;;;;;;;22.55;11.05;;;;;;;0.82;54.90;99645.53;147651;1147;104544;-71
2021/03/21 06:43:34;;;;;;;15.10;8.38;;;;;;;0.85;54.87;99644.47;147472;1147;104545;-70
2021/03/21 06:47:03;;;;;;;20.68;10.20;;;;;;;0.88;55.75;99629.34;147190;1148;104466;-69
2021/03/21 06:50:40;;;;;;;30.02;10.05;;;;;;;0.86;55.71;99635.66;147601;1147;104716;-68
2021/03/21 06:53:49;;;;;;;75.33;34.43;;;;;;;0.92;55.48;99640.48;147619;1147;104565;-69
2021/03/21 06:57:26;;;;;;;17.75;11.08;;;;;;;0.95;55.97;99629.77;147638;1147;104569;-69
2021/03/21 07:01:05;;;;;;;169.47;46.33;;;;;;;0.95;55.99;99620.09;147651;1147;104476;-71
2021/03/21 07:04:43;;;;;;;22.13;11.85;;;;;;;0.99;56.12;99620.72;147783;1148;104538;-71
2021/03/21 07:08:23;;;;;;;22.20;11.43;;;;;;;1.02;56.90;99620.52;147711;1147;104636;-71
2021/03/21 07:12:06;;;;;;;22.10;10.72;;;;;;;0.98;57.13;99619.03;147429;1147;104923;-73
2021/03/21 07:15:41;;;;;;;28.83;11.97;;;;;;;1.00;56.70;99611.87;147274;1146;104549;-72
2021/03/21 07:19:31;;;;;;;42.45;14.55;;;;;;;1.04;57.04;99604.63;147332;1147;104465;-74
2021/03/21 07:23:05;;;;;;;25.10;13.03;;;;;;;1.11;57.64;99600.62;147316;1147;104543;-70
2021/03/21 07:26:41;;;;;;;23.35;12.60;;;;;;;1.16;57.39;99595.89;147736;1147;104601;-71
2021/03/21 07:29:48;;;;;;;22.93;12.53;;;;;;;1.12;57.62;99586.55;147298;1147;104545;-74
2021/03/21 07:33:19;;;;;;;127.57;35.70;;;;;;;1.18;57.21;99588.73;147641;1147;104908;-74
2021/03/21 07:36:34;;;;;;;84.03;27.80;;;;;;;1.28;57.31;99579.23;147749;1147;104525;-71
2021/03/21 07:39:50;;;;;;;46.05;23.22;;;;;;;1.37;57.60;99580.38;147672;1147;104486;-74
2021/03/21 07:43:30;;;;;;;148.20;60.63;;;;;;;1.44;57.89;99578.12;147728;1147;104588;-71
2021/03/21 07:46:57;;;;;;;117.70;42.45;;;;;;;1.40;57.57;99572.25;147404;1147;104538;-71
2021/03/21 07:50:17;;;;;;;184.72;45.28;;;;;;;1.49;57.46;99568.95;147664;1148;104559;-71
2021/03/21 07:53:28;;;;;;;258.52;101.53;;;;;;;1.48;56.93;99554.15;147765;1147;104454;-75
2021/03/21 07:56:36;;;;;;;231.53;91.07;;;;;;;1.47;58.36;99556.88;147598;1147;104420;-69
2021/03/21 07:59:40;;;;;;;411.43;99.28;;;;;;;1.50;57.78;99559.27;147655;1147;104988;-68
2021/03/21 08:02:43;;;;;;;105.55;36.40;;;;;;;1.44;57.28;99549.20;147537;1147;104866;-71
2021/03/21 08:05:50;;;;;;;81.40;35.00;;;;;;;1.40;58.48;99542.50;147283;1147;104963;-67
2021/03/21 08:09:02;;;;;;;98.03;42.67;;;;;;;1.35;58.11;99550.73;147516;1148;104470;-71
2021/03/21 08:12:27;;;;;;;33.78;20.85;;;;;;;1.28;58.30;99536.35;147649;1147;104834;-73
2021/03/21 08:15:33;;;;;;;26.80;15.83;;;;;;;1.25;58.39;99526.05;147523;1147;104640;-72
2021/03/21 08:18:37;;;;;;;43.70;20.35;;;;;;;1.25;58.37;99520.80;147156;1147;104490;-72
2021/03/21 08:21:41;;;;;;;72.53;28.87;;;;;;;1.27;58.10;99518.89;147534;1148;104449;-73
2021/03/21 08:24:47;;;;;;;63.73;29.52;;;;;;;1.29;58.08;99507.34;147563;1147;104553;-74
2021/03/21 08:27:53;;;;;;;36.07;21.43;;;;;;;1.37;58.50;99514.66;147760;1147;104476;-75
2021/03/21 08:30:59;;;;;;;64.42;26.40;;;;;;;1.42;57.46;99512.52;147835;1147;104655;-76
2021/03/21 08:34:27;;;;;;;67.95;26.77;;;;;;;1.45;58.06;99516.72;147770;1148;104552;-79
2021/03/21 08:37:45;;;;;;;44.97;20.43;;;;;;;1.47;58.25;99515.65;147787;1148;104500;-75
2021/03/21 08:40:58;;;;;;;54.77;25.70;;;;;;;1.52;57.85;99510.90;147817;1148;104476;-74
2021/03/21 08:44:05;;;;;;;257.05;75.83;;;;;;;1.57;57.93;99507.91;147773;1147;104450;-75
2021/03/21 08:47:18;;;;;;;79.10;29.75;;;;;;;1.61;58.12;99511.16;147631;1148;104972;-71
2021/03/21 08:50:34;;;;;;;39.50;18.35;;;;;;;1.63;58.49;99509.25;147785;1147;104553;-77
2021/03/21 08:53:41;;;;;;;81.30;28.27;;;;;;;1.65;58.56;99509.98;147666;1147;104476;-71
2021/03/21 08:56:59;;;;;;;57.35;23.47;;;;;;;1.65;58.81;99507.34;147782;1147;104516;-72
2021/03/21 09:00:22;;;;;;;25.32;14.23;;;;;;;1.71;58.83;99496.36;147770;1147;104556;-71
2021/03/21 09:03:32;;;;;;;30.02;15.43;;;;;;;1.75;59.03;99497.80;147664;1147;104609;-71
2021/03/21 09:06:37;;;;;;;22.10;13.18;;;;;;;1.79;57.96;99494.02;148370;1147;104559;-70
2021/03/21 09:09:46;;;;;;;19.37;11.45;;;;;;;1.86;58.58;99492.58;147938;1147;104519;-72
2021/03/21 09:12:52;;;;;;;27.95;17.45;;;;;;;1.92;58.27;99488.64;148316;1146;104427;-71
2021/03/21 09:16:08;;;;;;;21.35;13.80;;;;;;;2.02;58.58;99494.04;147545;1146;104466;-69
2021/03/21 09:19:21;;;;;;;18.90;12.30;;;;;;;2.08;58.04;99488.30;147986;1146;104553;-70
2021/03/21 09:22:35;;;;;;;21.52;13.55;;;;;;;2.11;57.92;99483.64;147636;1146;104590;-72
2021/03/21 09:25:51;;;;;;;31.87;19.27;;;;;;;2.18;58.39;99480.56;146928;1147;104500;-71
2021/03/21 09:28:58;;;;;;;35.23;21.63;;;;;;;2.32;58.11;99482.95;147753;1147;104585;-76
2021/03/21 09:32:05;;;;;;;25.77;15.45;;;;;;;2.48;58.19;99479.95;147635;1148;104812;-73
2021/03/21 09:35:31;;;;;;;31.93;19.77;;;;;;;2.56;58.19;99472.30;148064;1147;104610;-67
2021/03/21 09:38:44;;;;;;;55.23;25.80;;;;;;;2.66;58.16;99475.87;148262;1147;104435;-71
2021/03/21 09:41:50;;;;;;;82.90;36.10;;;;;;;2.75;58.58;99472.52;147348;1146;104533;-69
2021/03/21 09:44:53;;;;;;;37.30;18.10;;;;;;;2.71;58.88;99486.89;147515;1147;104473;-70
2021/03/21 09:48:00;;;;;;;49.73;20.52;;;;;;;2.64;59.10;99476.97;147342;1147;104492;-69
2021/03/21 09:51:13;;;;;;;36.88;18.15;;;;;;;2.55;58.90;99481.15;147565;1147;104612;-70
2021/03/21 09:54:32;;;;;;;60.12;23.35;;;;;;;2.55;59.00;99475.87;147660;1147;104476;-69
2021/03/21 09:57:52;;;;;;;34.38;16.65;;;;;;;2.63;59.06;99473.47;147366;1147;104546;-66
2021/03/21 10:01:01;;;;;;;23.75;13.40;;;;;;;2.67;58.61;99476.70;147236;1147;104461;-68
2021/03/21 10:04:19;;;;;;;89.17;30.07;;;;;;;2.72;59.70;99466.65;147688;1147;104476;-70
2021/03/21 10:07:30;;;;;;;33.20;17.57;;;;;;;2.76;58.30;99473.34;147745;1147;104652;-68
2021/03/21 10:10:38;;;;;;;52.17;23.15;;;;;;;2.86;58.85;99481.34;147566;1146;105016;-69
2021/03/21 10:13:44;;;;;;;42.93;19.47;;;;;;;2.80;60.12;99468.67;147601;1147;104493;-75
2021/03/21 10:16:48;;;;;;;34.20;19.10;;;;;;;2.83;59.58;99463.14;147725;1147;104809;-69
2021/03/21 10:19:56;;;;;;;27.30;15.88;;;;;;;2.88;58.71;99456.54;147605;1147;104514;-69
2021/03/21 10:23:01;;;;;;;27.07;16.43;;;;;;;2.93;58.38;99461.45;147606;1146;104610;-68
2021/03/21 10:26:07;;;;;;;38.28;21.12;;;;;;;2.98;58.98;99458.44;147566;1147;104636;-67
2021/03/21 10:29:38;;;;;;;28.98;15.65;;;;;;;3.09;59.07;99459.23;147567;1148;104485;-75
2021/03/21 10:32:43;;;;;;;21.97;13.20;;;;;;;3.08;58.14;99457.58;147432;1148;104474;-75
2021/03/21 10:35:53;;;;;;;22.70;15.17;;;;;;;3.12;58.03;99463.44;147690;1146;104549;-70
2021/03/21 10:38:58;;;;;;;21.00;14.68;;;;;;;3.12;58.68;99453.73;147660;1147;104624;-68
2021/03/21 10:42:04;;;;;;;54.17;26.07;;;;;;;3.08;59.93;99451.45;147335;1148;104549;-73
2021/03/21 10:45:10;;;;;;;56.10;33.02;;;;;;;3.01;59.04;99448.48;147421;1147;104469;-72
2021/03/21 10:48:50;;;;;;;31.77;19.82;;;;;;;2.99;59.87;99442.51;147455;1146;104560;-75
2021/03/21 10:52:26;;;;;;;28.35;17.62;;;;;;;2.93;59.52;99437.74;147656;1147;104455;-67
2021/03/21 10:55:37;;;;;;;29.63;19.55;;;;;;;2.95;59.08;99430.55;147655;1148;104614;-67
2021/03/21 10:59:08;;;;;;;29.80;18.07;;;;;;;3.03;59.89;99433.39;147636;1146;104569;-71
2021/03/21 11:02:26;;;;;;;37.45;20.30;;;;;;;3.15;60.15;99427.09;147575;1146;104540;-70
2021/03/21 11:05:32;;;;;;;105.85;36.63;;;;;;;3.23;59.59;99423.00;147696;1148;104550;-78
2021/03/21 11:08:35;;;;;;;179.55;41.68;;;;;;;3.32;59.42;99422.25;147762;1147;104450;-73
2021/03/21 11:11:41;;;;;;;118.13;36.00;;;;;;;3.30;59.25;99416.27;147727;1147;104604;-67
2021/03/21 11:14:44;;;;;;;76.65;39.58;;;;;;;3.30;60.46;99419.73;147578;1147;104499;-74
2021/03/21 11:17:47;;;;;;;49.42;23.30;;;;;;;3.28;59.95;99412.92;147541;1147;104546;-69
2021/03/21 11:21:00;;;;;;;28.90;18.30;;;;;;;3.28;60.28;99405.84;147195;1147;104538;-73
2021/03/21 11:24:07;;;;;;;27.65;19.30;;;;;;;3.29;60.43;99407.53;147563;1147;104550;-74
2021/03/21 11:27:23;;;;;;;51.63;24.92;;;;;;;3.29;60.07;99401.40;147661;1147;104614;-72
2021/03/21 11:30:28;;;;;;;24.60;17.15;;;;;;;3.33;60.68;99403.67;147727;1147;104553;-71
2021/03/21 11:33:36;;;;;;;25.52;17.23;;;;;;;3.40;60.30;99398.70;147894;1147;104393;-82
2021/03/21 11:36:39;;;;;;;33.92;23.92;;;;;;;3.47;60.95;99391.96;147773;1146;104991;-70
2021/03/21 11:39:47;;;;;;;28.27;18.57;;;;;;;3.53;60.00;99396.71;147751;1147;104531;-75
2021/03/21 11:43:09;;;;;;;51.20;31.35;;;;;;;3.52;60.11;99392.42;147771;1147;104618;-71
2021/03/21 11:46:14;;;;;;;31.33;20.48;;;;;;;3.45;59.84;99390.42;147490;1148;104479;-69
2021/03/21 11:49:19;;;;;;;43.90;24.02;;;;;;;3.44;60.97;99386.11;147634;1147;104576;-74
2021/03/21 11:52:23;;;;;;;98.17;39.57;;;;;;;3.47;60.60;99383.22;147749;1147;104532;-70
2021/03/21 11:55:30;;;;;;;52.58;25.57;;;;;;;3.54;61.47;99376.44;147599;1146;104540;-69
2021/03/21 11:58:40;;;;;;;43.45;26.82;;;;;;;3.57;61.36;99375.36;147234;1147;104551;-75
2021/03/21 12:01:48;;;;;;;55.20;32.05;;;;;;;3.57;61.30;99367.45;147256;1147;104541;-72
2021/03/21 12:04:52;;;;;;;47.80;27.07;;;;;;;3.61;61.32;99371.50;147332;1147;104538;-72
2021/03/21 12:08:08;;;;;;;42.40;24.75;;;;;;;3.64;60.85;99368.61;147270;1148;104851;-69
2021/03/21 12:11:36;;;;;;;36.85;22.05;;;;;;;3.73;61.16;99365.16;147197;1146;104557;-67
2021/03/21 12:14:46;;;;;;;26.75;18.77;;;;;;;3.74;60.91;99357.12;147535;1147;104613;-66
2021/03/21 12:18:00;;;;;;;28.40;18.40;;;;;;;3.70;60.98;99352.25;147546;1147;104562;-72
2021/03/21 12:21:15;;;;;;;26.00;18.17;;;;;;;3.66;61.33;99342.94;147262;1147;104557;-70
2021/03/21 12:24:23;;;;;;;44.47;27.10;;;;;;;3.69;61.38;99340.02;147253;1146;104451;-73
2021/03/21 12:27:30;;;;;;;48.65;31.55;;;;;;;3.76;60.74;99341.16;147690;1147;104458;-71
2021/03/21 12:30:40;;;;;;;25.12;16.55;;;;;;;3.83;60.45;99336.19;147471;1146;104538;-71
2021/03/21 12:33:44;;;;;;;26.85;17.25;;;;;;;3.87;60.41;99348.17;147324;1147;104528;-71
2021/03/21 12:37:02;;;;;;;22.62;15.43;;;;;;;3.81;60.74;99343.39;147295;1147;104689;-74
2021/03/21 12:40:17;;;;;;;151.05;49.00;;;;;;;3.80;60.79;99337.29;147696;1147;104548;-72
2021/03/21 12:43:24;;;;;;;30.90;18.50;;;;;;;3.80;61.53;99337.29;147727;1147;104468;-69
2021/03/21 12:46:40;;;;;;;30.32;18.80;;;;;;;3.84;61.60;99335.23;147704;1147;104718;-71
2021/03/21 12:49:48;;;;;;;33.03;20.00;;;;;;;3.87;61.76;99327.06;147800;1148;104457;-71
2021/03/21 12:52:52;;;;;;;66.97;32.73;;;;;;;3.84;62.16;99322.03;147904;1147;104448;-71
2021/03/21 12:55:58;;;;;;;51.90;27.02;;;;;;;3.79;62.11;99325.08;147665;1147;104544;-67
2021/03/21 12:59:01;;;;;;;41.40;21.40;;;;;;;3.80;61.05;99320.63;147690;1146;104524;-67
2021/03/21 13:02:06;;;;;;;84.03;30.62;;;;;;;3.74;61.63;99311.44;147758;1146;104554;-67
2021/03/21 13:05:21;;;;;;;105.63;35.03;;;;;;;3.67;61.78;99311.12;147806;1146;104557;-70
2021/03/21 13:08:25;;;;;;;116.57;41.90;;;;;;;3.60;61.61;99315.27;147814;1147;104538;-68
2021/03/21 13:11:29;;;;;;;51.20;27.53;;;;;;;3.56;61.54;99315.65;147620;1147;104579;-66
2021/03/21 13:14:32;;;;;;;27.90;19.15;;;;;;;3.50;61.35;99323.14;147514;1147;104473;-68
2021/03/21 13:17:36;;;;;;;31.27;19.50;;;;;;;3.44;61.83;99317.53;147598;1148;104899;-74
2021/03/21 13:20:39;;;;;;;24.27;15.77;;;;;;;3.42;63.05;99316.84;147641;1147;104553;-69
2021/03/21 13:23:42;;;;;;;32.20;20.60;;;;;;;3.39;62.62;99310.03;147612;1146;104539;-70
2021/03/21 13:26:46;;;;;;;56.00;23.23;;;;;;;3.44;62.80;99299.91;147353;1146;104540;-69
2021/03/21 13:29:49;;;;;;;121.60;34.80;;;;;;;3.51;63.01;99301.06;147356;1147;104470;-71
2021/03/21 13:32:52;;;;;;;141.50;35.07;;;;;;;3.53;63.29;99304.40;147696;1147;104615;-68
2021/03/21 13:35:58;;;;;;;183.37;46.02;;;;;;;3.60;62.20;99317.91;147738;1147;104537;-71
2021/03/21 13:39:01;;;;;;;235.23;54.67;;;;;;;3.61;61.85;99300.27;147722;1147;104548;-68
2021/03/21 13:42:06;;;;;;;390.90;115.40;;;;;;;3.64;62.35;99308.77;147767;1148;104581;-70
2021/03/21 13:45:12;;;;;;;433.07;117.87;;;;;;;3.64;61.76;99305.30;147456;1147;104455;-73
2021/03/21 13:48:15;;;;;;;156.35;65.40;;;;;;;3.60;62.18;99303.86;147337;1146;104576;-74
2021/03/21 13:51:19;;;;;;;58.15;27.80;;;;;;;3.52;62.81;99296.61;147570;1147;104450;-75
2021/03/21 13:54:22;;;;;;;67.27;36.53;;;;;;;3.45;63.42;99301.59;147718;1146;104526;-74
2021/03/21 13:57:25;;;;;;;63.97;40.03;;;;;;;3.38;62.79;99297.80;147918;1147;104503;-77
2021/03/21 14:00:29;;;;;;;50.12;33.35;;;;;;;3.37;62.70;99300.55;147789;1147;104467;-78
2021/03/21 14:03:32;;;;;;;126.78;49.13;;;;;;;3.36;63.18;99297.09;147739;1148;104840;-76
2021/03/21 14:06:36;;;;;;;32.70;20.57;;;;;;;3.42;62.50;99298.38;147783;1147;104589;-72
2021/03/21 14:09:39;;;;;;;37.00;23.90;;;;;;;3.49;62.97;99296.89;147871;1147;104429;-73
2021/03/21 14:12:42;;;;;;;30.47;21.53;;;;;;;3.56;63.64;99291.91;147595;1147;104553;-71
2021/03/21 14:15:46;;;;;;;47.55;24.55;;;;;;;3.63;63.61;99290.42;147813;1147;104492;-69
2021/03/21 14:18:49;;;;;;;43.28;23.00;;;;;;;3.68;63.20;99296.15;147673;1146;104569;-69
2021/03/21 14:21:52;;;;;;;38.02;22.40;;;;;;;3.68;63.52;99291.70;147667;1147;104713;-70
2021/03/21 14:24:56;;;;;;;40.92;22.17;;;;;;;3.65;64.00;99275.30;147719;1147;104499;-72
2021/03/21 14:27:59;;;;;;;86.53;34.20;;;;;;;3.65;62.91;99285.84;147433;1147;104479;-77